createdAt,value
2023-01-28T00:02:24.802Z,69.84
2023-01-28T00:04:53.525Z,69.83
2023-01-28T00:07:21.858Z,70.18
2023-01-28T00:09:50.139Z,70.02
2023-01-28T00:12:18.558Z,69.97
2023-01-28T00:14:48.023Z,69.89
2023-01-28T00:17:16.611Z,69.73
2023-01-28T00:19:46.183Z,69.52
2023-01-28T00:22:15.256Z,69.88
2023-01-28T00:24:43.564Z,69.55
2023-01-28T00:27:12.725Z,69.47
2023-01-28T00:29:41.030Z,69.65
2023-01-28T00:32:10.306Z,69.75
2023-01-28T00:34:38.582Z,69.77
2023-01-28T00:37:10.683Z,69.70
2023-01-28T00:39:38.985Z,69.41
2023-01-28T00:42:07.331Z,69.71
2023-01-28T00:44:36.415Z,69.65
2023-01-28T00:47:04.729Z,69.67
2023-01-28T00:49:33.047Z,69.54
2023-01-28T00:52:01.431Z,69.78
2023-01-28T00:54:32.233Z,70.14
2023-01-28T00:57:01.808Z,69.52
2023-01-28T00:59:30.070Z,70.01
2023-01-28T01:02:12.219Z,69.67
2023-01-28T01:04:41.303Z,70.11
2023-01-28T01:07:09.577Z,69.79
2023-01-28T01:09:39.427Z,70.01
2023-01-28T01:12:08.959Z,69.90
2023-01-28T01:14:37.255Z,69.75
2023-01-28T01:17:05.563Z,69.45
2023-01-28T01:19:33.859Z,69.26
2023-01-28T01:22:02.774Z,68.94
2023-01-28T01:24:34.267Z,68.84
2023-01-28T01:27:05.910Z,69.26
2023-01-28T01:29:34.328Z,68.56
2023-01-28T01:32:02.605Z,68.84
2023-01-28T01:34:30.955Z,68.95
2023-01-28T01:36:59.315Z,68.70
2023-01-28T01:39:27.653Z,68.65
2023-01-28T01:41:55.897Z,68.66
2023-01-28T01:45:00.777Z,68.90
2023-01-28T01:47:36.255Z,68.80
2023-01-28T01:50:09.464Z,68.62
2023-01-28T01:52:38.063Z,69.29
2023-01-28T01:55:14.020Z,69.34
2023-01-28T01:57:44.240Z,69.51
2023-01-28T02:00:14.915Z,69.78
2023-01-28T02:02:45.397Z,69.75
2023-01-28T02:05:18.421Z,69.78
2023-01-28T02:07:48.255Z,69.87
2023-01-28T02:10:19.639Z,70.32
2023-01-28T02:12:54.715Z,70.02
2023-01-28T02:15:29.815Z,70.28
2023-01-28T02:17:58.808Z,70.27
2023-01-28T02:20:38.481Z,70.03
2023-01-28T02:23:32.637Z,70.15
2023-01-28T02:26:24.319Z,70.03
2023-01-28T02:29:00.345Z,69.72
2023-01-28T02:31:35.867Z,69.83
2023-01-28T02:34:15.184Z,69.99
2023-01-28T02:36:49.453Z,70.14
2023-01-28T02:39:23.001Z,70.02
2023-01-28T02:41:57.738Z,69.58
2023-01-28T02:44:27.481Z,69.38
2023-01-28T02:47:13.750Z,69.50
2023-01-28T02:49:47.438Z,69.59
2023-01-28T02:52:54.803Z,69.88
2023-01-28T02:55:33.345Z,69.68
2023-01-28T02:58:11.222Z,69.65
2023-01-28T03:00:48.826Z,69.78
2023-01-28T03:03:23.984Z,69.52
2023-01-28T03:06:05.253Z,69.58
2023-01-28T03:08:55.582Z,69.73
2023-01-28T03:11:42.099Z,69.32
2023-01-28T03:14:28.964Z,69.27
2023-01-28T03:17:19.700Z,69.26
2023-01-28T03:20:06.177Z,69.48
2023-01-28T03:22:56.695Z,69.16
2023-01-28T03:25:45.346Z,68.87
2023-01-28T03:28:36.909Z,68.45
2023-01-28T03:31:28.165Z,68.26
2023-01-28T03:34:19.289Z,68.44
2023-01-28T03:36:50.416Z,68.45
2023-01-28T03:39:41.491Z,68.07
2023-01-28T03:42:14.773Z,68.10
2023-01-28T03:45:16.257Z,68.02
2023-01-28T03:47:47.759Z,67.98
2023-01-28T03:50:18.675Z,67.92
2023-01-28T03:53:13.533Z,68.00
2023-01-28T03:55:53.594Z,67.53
2023-01-28T03:58:23.428Z,67.54
2023-01-28T04:00:52.539Z,67.85
2023-01-28T04:03:22.495Z,67.85
2023-01-28T04:06:05.581Z,67.79
2023-01-28T04:08:52.941Z,67.89
2023-01-28T04:11:44.327Z,68.42
2023-01-28T04:14:17.278Z,68.13
2023-01-28T04:16:59.173Z,68.52
2023-01-28T04:19:28.659Z,68.51
2023-01-28T04:21:59.564Z,68.19
2023-01-28T04:24:28.010Z,67.85
2023-01-28T04:26:56.582Z,67.92
2023-01-28T04:29:26.490Z,69.78
2023-01-28T04:31:59.539Z,69.70
2023-01-28T04:34:38.840Z,70.27
2023-01-28T04:37:31.571Z,70.60
2023-01-28T04:40:15.532Z,71.00
2023-01-28T04:42:59.142Z,70.55
2023-01-28T04:45:45.844Z,71.95
2023-01-28T04:48:43.524Z,72.24
2023-01-28T04:51:30.771Z,71.69
2023-01-28T04:54:23.512Z,71.49
2023-01-28T04:56:51.975Z,71.68
2023-01-28T04:59:20.925Z,73.25
2023-01-28T05:01:49.518Z,73.58
2023-01-28T05:04:18.186Z,74.91
2023-01-28T05:06:46.462Z,75.02
2023-01-28T05:09:20.872Z,74.10
2023-01-28T05:11:51.730Z,73.50
2023-01-28T05:14:20.284Z,73.12
2023-01-28T05:17:06.023Z,72.31
2023-01-28T05:19:34.760Z,71.69
2023-01-28T05:22:04.072Z,71.08
2023-01-28T05:24:58.564Z,71.51
2023-01-28T05:27:28.295Z,71.29
2023-01-28T05:29:56.861Z,72.33
2023-01-28T05:32:25.189Z,71.91
2023-01-28T05:34:53.634Z,71.18
2023-01-28T05:37:21.926Z,71.13
2023-01-28T05:39:53.859Z,71.43
2023-01-28T05:42:22.611Z,71.34
2023-01-28T05:44:56.450Z,71.50
2023-01-28T05:47:44.811Z,70.66
2023-01-28T05:50:25.603Z,70.45
2023-01-28T05:53:13.805Z,70.62
2023-01-28T05:55:45.374Z,70.91
2023-01-28T05:58:13.773Z,70.68
2023-01-28T06:00:43.526Z,70.75
2023-01-28T06:03:11.961Z,71.59
2023-01-28T06:05:40.441Z,71.68
2023-01-28T06:08:09.196Z,71.82
2023-01-28T06:10:38.310Z,71.54
2023-01-28T06:13:06.637Z,71.83
2023-01-28T06:15:58.356Z,72.09
2023-01-28T06:18:38.086Z,72.01
2023-01-28T06:21:06.973Z,71.60
2023-01-28T06:23:35.423Z,72.38
2023-01-28T06:26:08.624Z,72.58
2023-01-28T06:28:38.528Z,72.90
2023-01-28T06:31:08.282Z,72.65
2023-01-28T06:33:36.670Z,72.30
2023-01-28T06:36:06.641Z,72.52
2023-01-28T06:38:35.199Z,72.23
2023-01-28T06:41:03.614Z,72.85
2023-01-28T06:43:31.992Z,73.52
2023-01-28T06:46:00.673Z,73.31
2023-01-28T06:48:30.542Z,73.48
2023-01-28T06:50:59.078Z,73.78
2023-01-28T06:53:27.380Z,74.22
2023-01-28T06:55:55.708Z,74.02
2023-01-28T06:58:24.040Z,74.21
2023-01-28T07:00:52.330Z,73.68
2023-01-28T07:03:20.915Z,73.15
2023-01-28T07:05:50.706Z,72.57
2023-01-28T07:08:19.091Z,72.15
2023-01-28T07:10:47.566Z,71.93
2023-01-28T07:13:15.911Z,71.71
2023-01-28T07:15:44.296Z,71.51
2023-01-28T07:18:12.612Z,71.24
2023-01-28T07:20:40.951Z,70.68
2023-01-28T07:23:10.654Z,70.12
2023-01-28T07:25:39.170Z,69.72
2023-01-28T07:28:07.720Z,69.41
2023-01-28T07:30:36.060Z,69.68
2023-01-28T07:33:04.360Z,69.27
2023-01-28T07:35:33.291Z,69.45
2023-01-28T07:38:02.807Z,69.18
2023-01-28T07:40:32.598Z,68.83
2023-01-28T07:43:01.059Z,68.64
2023-01-28T07:45:37.309Z,68.63
2023-01-28T07:48:07.993Z,68.61
2023-01-28T07:50:39.650Z,68.90
2023-01-28T07:53:12.621Z,69.31
2023-01-28T07:55:42.630Z,68.81
2023-01-28T07:58:13.583Z,68.53
2023-01-28T08:00:41.878Z,68.15
2023-01-28T08:03:16.911Z,68.75
2023-01-28T08:05:47.862Z,68.58
2023-01-28T08:08:16.997Z,67.92
2023-01-28T08:10:47.754Z,67.05
2023-01-28T08:13:17.998Z,65.47
2023-01-28T08:15:47.447Z,63.61
2023-01-28T08:18:17.775Z,62.54
2023-01-28T08:20:47.732Z,61.84
2023-01-28T08:23:18.700Z,61.86
2023-01-28T08:25:49.037Z,61.48
2023-01-28T08:28:18.467Z,61.68
2023-01-28T08:30:47.611Z,62.38
2023-01-28T08:33:19.069Z,63.07
2023-01-28T08:35:47.850Z,63.33
2023-01-28T08:38:17.692Z,62.93
2023-01-28T08:40:47.786Z,63.35
2023-01-28T08:43:16.121Z,63.31
2023-01-28T08:45:44.441Z,62.78
2023-01-28T08:48:17.133Z,63.36
2023-01-28T08:50:46.363Z,63.45
2023-01-28T08:53:17.065Z,63.85
2023-01-28T08:55:47.192Z,64.15
2023-01-28T08:58:18.051Z,64.22
2023-01-28T09:00:48.122Z,65.11
2023-01-28T09:03:16.554Z,65.27
2023-01-28T09:05:45.154Z,65.90
2023-01-28T09:08:16.522Z,66.80
2023-01-28T09:10:45.255Z,66.76
2023-01-28T09:13:17.050Z,65.90
2023-01-28T09:15:45.732Z,66.10
2023-01-28T09:18:14.063Z,67.57
2023-01-28T09:20:42.834Z,67.88
2023-01-28T09:23:11.861Z,67.10
2023-01-28T09:25:40.300Z,64.68
2023-01-28T09:28:09.006Z,63.43
2023-01-28T09:30:39.982Z,63.69
2023-01-28T09:33:09.102Z,64.43
2023-01-28T09:35:37.793Z,64.49
2023-01-28T09:38:07.076Z,65.26
2023-01-28T09:40:38.827Z,64.86
2023-01-28T09:43:34.784Z,65.02
2023-01-28T09:46:07.842Z,66.02
2023-01-28T09:48:42.068Z,66.17
2023-01-28T09:51:23.547Z,66.04
2023-01-28T09:53:56.611Z,66.54
2023-01-28T09:56:31.542Z,64.68
2023-01-28T09:59:01.340Z,63.85
2023-01-28T10:01:44.702Z,63.97
2023-01-28T10:04:40.805Z,62.40
2023-01-28T10:07:32.747Z,61.51
2023-01-28T10:10:08.001Z,60.77
2023-01-28T10:13:00.141Z,59.24
2023-01-28T10:15:55.702Z,60.38
2023-01-28T10:18:37.222Z,57.98
2023-01-28T10:21:14.399Z,57.46
2023-01-28T10:23:57.245Z,57.70
2023-01-28T10:26:29.099Z,57.50
2023-01-28T10:29:02.212Z,56.38
2023-01-28T10:31:37.056Z,56.67
2023-01-28T10:34:06.971Z,55.95
2023-01-28T10:36:35.974Z,56.09
2023-01-28T10:39:04.575Z,56.27
2023-01-28T10:41:34.517Z,55.85
2023-01-28T10:44:03.066Z,54.86
2023-01-28T10:46:35.335Z,54.60
2023-01-28T10:49:14.513Z,54.29
2023-01-28T10:51:44.954Z,54.64
2023-01-28T10:54:22.618Z,54.68
2023-01-28T10:56:56.293Z,53.89
2023-01-28T10:59:29.162Z,54.36
2023-01-28T11:02:03.684Z,56.33
2023-01-28T11:04:35.636Z,55.10
2023-01-28T11:07:07.692Z,54.57
2023-01-28T11:09:39.824Z,54.30
2023-01-28T11:12:21.607Z,53.72
2023-01-28T11:14:56.016Z,54.02
2023-01-28T11:17:27.306Z,55.16
2023-01-28T11:20:01.006Z,55.06
2023-01-28T11:22:35.210Z,55.75
2023-01-28T11:25:08.096Z,55.82
2023-01-28T11:27:36.592Z,54.69
2023-01-28T11:30:05.822Z,54.33
2023-01-28T11:32:34.820Z,54.93
2023-01-28T11:35:07.870Z,55.65
2023-01-28T11:37:37.891Z,56.47
2023-01-28T11:40:21.825Z,56.72
2023-01-28T11:42:52.573Z,58.09
2023-01-28T11:45:28.820Z,57.88
2023-01-28T11:48:14.187Z,56.43
2023-01-28T11:50:53.303Z,55.00
2023-01-28T11:53:56.389Z,53.14
2023-01-28T11:56:46.686Z,51.73
2023-01-28T11:59:43.389Z,51.67
2023-01-28T12:02:29.678Z,51.18
2023-01-28T12:05:13.990Z,50.29
2023-01-28T12:07:50.058Z,51.83
2023-01-28T12:10:30.376Z,52.10
2023-01-28T12:13:16.610Z,52.04
2023-01-28T12:16:25.787Z,51.38
2023-01-28T12:19:14.055Z,50.58
2023-01-28T12:21:58.001Z,49.40
2023-01-28T12:24:44.605Z,50.67
2023-01-28T12:27:28.242Z,51.01
2023-01-28T12:30:07.876Z,50.07
2023-01-28T12:32:55.683Z,50.01
2023-01-28T12:35:51.252Z,51.26
2023-01-28T12:38:32.426Z,50.89
2023-01-28T12:41:09.150Z,51.05
2023-01-28T12:43:51.131Z,50.86
2023-01-28T12:46:36.821Z,49.68
2023-01-28T12:49:10.345Z,49.82
2023-01-28T12:51:53.647Z,48.70
2023-01-28T12:54:26.535Z,48.08
2023-01-28T12:56:57.798Z,47.36
2023-01-28T12:59:33.326Z,47.45
2023-01-28T13:02:23.467Z,47.28
2023-01-28T13:04:59.477Z,47.88
2023-01-28T13:07:34.588Z,47.76
2023-01-28T13:10:08.118Z,50.16
2023-01-28T13:12:41.498Z,49.89
2023-01-28T13:15:15.552Z,50.23
2023-01-28T13:17:56.917Z,49.93
2023-01-28T13:20:37.956Z,48.93
2023-01-28T13:23:21.598Z,48.48
2023-01-28T13:25:51.105Z,48.68
2023-01-28T13:28:30.785Z,48.31
2023-01-28T13:31:08.286Z,48.03
2023-01-28T13:33:39.317Z,47.36
2023-01-28T13:36:25.172Z,46.83
2023-01-28T13:39:04.136Z,46.91
2023-01-28T13:41:41.712Z,47.07
2023-01-28T13:44:28.627Z,46.52
2023-01-28T13:47:01.381Z,46.82
2023-01-28T13:49:38.282Z,47.10
2023-01-28T13:52:15.966Z,47.81
2023-01-28T13:54:51.926Z,47.29
2023-01-28T13:58:03.602Z,47.36
2023-01-28T14:00:41.894Z,46.48
2023-01-28T14:03:55.157Z,46.17
2023-01-28T14:07:01.099Z,46.31
2023-01-28T14:09:54.831Z,46.65
2023-01-28T14:13:00.115Z,48.80
2023-01-28T14:15:48.173Z,48.58
2023-01-28T14:18:26.755Z,48.48
2023-01-28T14:20:58.276Z,48.29
2023-01-28T14:23:31.158Z,48.27
2023-01-28T14:26:19.240Z,47.88
2023-01-28T14:29:01.164Z,47.89
2023-01-28T14:31:38.004Z,48.13
2023-01-28T14:34:13.665Z,48.09
2023-01-28T14:36:45.536Z,48.43
2023-01-28T14:39:19.650Z,48.17
2023-01-28T14:41:51.663Z,48.32
2023-01-28T14:44:32.792Z,48.29
2023-01-28T14:47:41.379Z,47.81
2023-01-28T14:50:32.276Z,47.99
2023-01-28T14:53:25.735Z,48.00
2023-01-28T14:56:00.954Z,49.11
2023-01-28T14:58:35.986Z,50.38
2023-01-28T15:01:04.432Z,50.27
2023-01-28T15:03:35.551Z,49.91
2023-01-28T15:06:06.685Z,50.36
2023-01-28T15:08:35.873Z,50.95
2023-01-28T15:11:06.687Z,51.40
2023-01-28T15:13:37.815Z,51.53
2023-01-28T15:16:08.377Z,52.67
2023-01-28T15:18:42.485Z,53.13
2023-01-28T15:21:10.985Z,53.22
2023-01-28T15:23:42.417Z,53.88
2023-01-28T15:26:17.065Z,54.70
2023-01-28T15:28:47.451Z,54.79
2023-01-28T15:31:24.804Z,55.88
2023-01-28T15:34:03.223Z,56.52
2023-01-28T15:36:32.995Z,56.85
2023-01-28T15:39:01.460Z,57.27
2023-01-28T15:41:35.046Z,56.21
2023-01-28T15:44:04.246Z,56.55
2023-01-28T15:46:33.789Z,57.66
2023-01-28T15:49:05.387Z,57.76
2023-01-28T15:51:35.045Z,58.02
2023-01-28T15:54:08.323Z,57.59
2023-01-28T15:56:37.883Z,57.23
2023-01-28T15:59:23.466Z,57.22
2023-01-28T16:01:52.042Z,57.73
2023-01-28T16:04:30.238Z,57.64
2023-01-28T16:07:00.229Z,57.08
2023-01-28T16:09:32.199Z,57.41
2023-01-28T16:12:04.944Z,57.25
2023-01-28T16:14:41.622Z,56.39
2023-01-28T16:17:10.506Z,56.16
2023-01-28T16:19:43.432Z,56.07
2023-01-28T16:22:21.758Z,56.09
2023-01-28T16:24:52.954Z,55.73
2023-01-28T16:27:24.117Z,55.61
2023-01-28T16:29:52.684Z,55.70
2023-01-28T16:32:31.324Z,55.77
2023-01-28T16:35:01.631Z,55.56
2023-01-28T16:37:30.437Z,55.36
2023-01-28T16:40:00.392Z,55.04
2023-01-28T16:42:30.984Z,55.12
2023-01-28T16:44:59.620Z,55.77
2023-01-28T16:47:28.589Z,55.93
2023-01-28T16:49:57.130Z,56.16
2023-01-28T16:52:26.912Z,56.29
2023-01-28T16:54:55.236Z,56.11
2023-01-28T16:57:24.374Z,55.91
2023-01-28T16:59:52.630Z,56.00
2023-01-28T17:02:21.029Z,55.95
2023-01-28T17:04:49.333Z,56.25
2023-01-28T17:07:17.663Z,56.29
2023-01-28T17:09:47.510Z,56.73
2023-01-28T17:12:16.050Z,56.47
2023-01-28T17:14:44.373Z,56.68
2023-01-28T17:17:12.939Z,57.30
2023-01-28T17:19:41.545Z,57.47
2023-01-28T17:22:09.899Z,58.42
2023-01-28T17:24:38.258Z,58.77
2023-01-28T17:27:08.270Z,59.67
2023-01-28T17:29:36.748Z,59.45
2023-01-28T17:32:05.335Z,59.28
2023-01-28T17:34:33.859Z,59.78
2023-01-28T17:37:02.209Z,59.93
2023-01-28T17:39:30.597Z,58.94
2023-01-28T17:41:59.163Z,58.78
2023-01-28T17:44:28.858Z,58.55
2023-01-28T17:46:57.154Z,58.53
2023-01-28T17:49:25.700Z,58.95
2023-01-28T17:51:54.099Z,59.22
2023-01-28T17:54:24.120Z,59.32
2023-01-28T17:56:53.032Z,59.22
2023-01-28T17:59:22.165Z,59.88
2023-01-28T18:01:54.587Z,59.32
2023-01-28T18:04:22.952Z,59.24
2023-01-28T18:06:51.658Z,59.13
2023-01-28T18:09:20.492Z,58.69
2023-01-28T18:11:48.819Z,59.26
2023-01-28T18:14:17.212Z,59.59
2023-01-28T18:16:45.718Z,59.57
2023-01-28T18:19:15.517Z,60.57
2023-01-28T18:21:52.717Z,60.29
2023-01-28T18:24:23.779Z,60.54
2023-01-28T18:26:52.316Z,60.21
2023-01-28T18:29:23.932Z,60.50
2023-01-28T18:31:55.430Z,59.74
2023-01-28T18:34:28.051Z,59.64
2023-01-28T18:36:57.297Z,59.26
2023-01-28T18:39:30.180Z,59.95
2023-01-28T18:41:59.445Z,61.53
2023-01-28T18:44:31.347Z,63.18
2023-01-28T18:46:59.806Z,62.50
2023-01-28T18:49:29.421Z,62.35
2023-01-28T18:51:57.909Z,62.18
2023-01-28T18:54:27.167Z,61.70
2023-01-28T18:56:55.643Z,62.08
2023-01-28T18:59:24.136Z,62.73
2023-01-28T19:01:53.153Z,62.64
2023-01-28T19:04:22.277Z,63.19
2023-01-28T19:06:52.081Z,63.38
2023-01-28T19:09:20.760Z,63.77
2023-01-28T19:11:50.830Z,63.69
2023-01-28T19:14:19.551Z,63.65
2023-01-28T19:16:48.484Z,63.08
2023-01-28T19:19:17.214Z,62.68
2023-01-28T19:21:45.596Z,62.37
2023-01-28T19:24:15.533Z,62.12
2023-01-28T19:26:45.365Z,62.08
2023-01-28T19:29:16.249Z,62.50
2023-01-28T19:31:48.779Z,62.53
2023-01-28T19:34:17.390Z,62.57
2023-01-28T19:36:46.751Z,62.72
2023-01-28T19:39:16.977Z,63.02
2023-01-28T19:41:45.791Z,63.07
2023-01-28T19:44:14.275Z,63.18
2023-01-28T19:46:43.165Z,63.37
2023-01-28T19:49:12.602Z,63.67
2023-01-28T19:51:41.022Z,63.66
2023-01-28T19:54:09.903Z,63.67
2023-01-28T19:56:39.660Z,64.03
2023-01-28T19:59:08.329Z,64.36
2023-01-28T20:01:37.187Z,64.89
2023-01-28T20:04:05.921Z,64.66
2023-01-28T20:06:35.702Z,65.16
2023-01-28T20:09:09.303Z,66.37
2023-01-28T20:11:39.199Z,66.85
2023-01-28T20:14:07.761Z,67.79
2023-01-28T20:16:37.203Z,67.86
2023-01-28T20:19:07.518Z,68.04
2023-01-28T20:21:37.109Z,68.98
2023-01-28T20:24:06.939Z,69.17
2023-01-28T20:26:39.164Z,68.94
2023-01-28T20:29:11.013Z,69.03
2023-01-28T20:31:41.289Z,69.13
2023-01-28T20:34:18.014Z,69.31
2023-01-28T20:36:47.153Z,69.23
2023-01-28T20:39:15.743Z,69.23
2023-01-28T20:41:45.792Z,69.70
2023-01-28T20:44:14.199Z,69.55
2023-01-28T20:46:42.549Z,69.65
2023-01-28T20:49:11.387Z,69.87
2023-01-28T20:51:39.734Z,70.13
2023-01-28T20:54:08.421Z,70.16
2023-01-28T20:56:36.903Z,70.43
2023-01-28T20:59:07.597Z,69.78
2023-01-28T21:01:36.924Z,69.45
2023-01-28T21:04:07.262Z,69.38
2023-01-28T21:06:37.421Z,69.01
2023-01-28T21:09:06.439Z,68.73
2023-01-28T21:11:35.373Z,68.46
2023-01-28T21:14:03.890Z,68.03
2023-01-28T21:16:33.800Z,67.35
2023-01-28T21:19:02.157Z,67.38
2023-01-28T21:21:31.326Z,67.21
2023-01-28T21:24:01.361Z,67.23
2023-01-28T21:26:30.430Z,67.36
2023-01-28T21:28:58.977Z,67.86
2023-01-28T21:31:28.480Z,67.69
2023-01-28T21:34:01.240Z,68.40
2023-01-28T21:36:33.590Z,67.78
2023-01-28T21:39:03.468Z,67.77
2023-01-28T21:41:32.552Z,67.75
2023-01-28T21:44:00.849Z,67.81
2023-01-28T21:46:32.551Z,68.08
2023-01-28T21:49:05.304Z,67.41
2023-01-28T21:51:40.449Z,67.59
2023-01-28T21:54:12.166Z,67.34
2023-01-28T21:56:40.761Z,67.58
2023-01-28T21:59:27.838Z,67.58
2023-01-28T22:01:57.593Z,67.80
2023-01-28T22:04:29.013Z,68.35
2023-01-28T22:06:57.691Z,67.88
2023-01-28T22:09:26.686Z,68.46
2023-01-28T22:11:55.111Z,68.68
2023-01-28T22:14:23.850Z,68.44
2023-01-28T22:16:53.344Z,68.35
2023-01-28T22:19:21.758Z,68.51
2023-01-28T22:21:51.496Z,68.38
2023-01-28T22:24:22.443Z,68.03
2023-01-28T22:26:51.834Z,68.72
2023-01-28T22:29:22.173Z,68.36
2023-01-28T22:31:52.596Z,68.70
2023-01-28T22:34:22.655Z,68.83
2023-01-28T22:36:53.118Z,68.43
2023-01-28T22:39:21.550Z,68.78
2023-01-28T22:41:49.899Z,68.83
2023-01-28T22:44:19.872Z,69.14
2023-01-28T22:46:48.519Z,68.94
2023-01-28T22:49:16.930Z,68.87
2023-01-28T22:51:45.289Z,68.77
2023-01-28T22:54:15.258Z,69.33
2023-01-28T22:56:43.718Z,69.11
2023-01-28T22:59:12.780Z,69.73
2023-01-28T23:01:41.313Z,69.70
2023-01-28T23:04:10.102Z,70.20
2023-01-28T23:06:38.825Z,70.37
2023-01-28T23:09:07.132Z,70.14
2023-01-28T23:11:36.962Z,70.10
2023-01-28T23:14:22.821Z,70.14
2023-01-28T23:17:09.225Z,69.84
2023-01-28T23:19:55.348Z,69.95
2023-01-28T23:22:44.024Z,70.40
2023-01-28T23:25:13.363Z,70.39
2023-01-28T23:27:43.321Z,70.29
2023-01-28T23:30:14.588Z,70.38
2023-01-28T23:32:48.558Z,70.62
2023-01-28T23:35:19.072Z,70.76
2023-01-28T23:37:47.377Z,70.98
2023-01-28T23:40:16.960Z,71.16
2023-01-28T23:42:51.411Z,70.59
2023-01-28T23:45:20.520Z,70.64
2023-01-28T23:47:49.028Z,71.17
2023-01-28T23:50:18.473Z,70.67
2023-01-28T23:52:47.023Z,70.94
2023-01-28T23:55:16.474Z,70.83
2023-01-28T23:57:44.869Z,71.36
